Playa Del Carmen, ROO, Mexico
Current Conditions -  °F | °C
As of 7:49 PM on Wednesday 17 Dec 2014 (Local Time) from MMCZ Reporting Station
Few Clouds Few Clouds  
Wind Chill: 61°   Ceiling: Unl
Heat Index: 61°   Visibility: 7mi
Dew Point: 57°   Wind: 0mph
Humidity: 88%   Direction: NA
Pressure: 30.11"   Gusts: NA
Location:  20.62°N, 87.07°W
Report Text: MMCZ 180149Z 00000KT 7SM FEW015 16/14 A3011 RMK 8/500 RTS
Loading
Personal Weather Stations






























Interactive Weather Map New forecast layout! Learn more

10-Day Weather Forecast

Advertisements
Track Severe Weather on mobile